Time;durP1;ratioP1;P1;durP2;ratioP2;P2;SDS_P1;SDS_P2;PMS_P1;PMS_P2;Temp;Humidity;BMP_temperature;BMP_pressure;BME280_temperature;BME280_humidity;BME280_pressure;Samples;Min_cycle;Max_cycle;Signal;HPM_P1;HPM_P2
2021/06/20 00:00:16;101661.00;0.34;176.44;0.00;0.00;0.62;;;;;28.90;1.00;;;;;;2568930;55;1115;-83
2021/06/20 00:02:44;439399.00;1.46;757.55;95812.00;0.32;166.34;;;;;28.80;1.00;;;;;;2570847;55;1971;-82
2021/06/20 00:05:14;179747.00;0.60;311.05;42213.00;0.14;73.72;;;;;28.50;1.00;;;;;;2570852;55;1366;-82
2021/06/20 00:07:42;0.00;0.00;0.62;0.00;0.00;0.62;;;;;28.40;1.00;;;;;;2570888;55;1065;-84
2021/06/20 00:10:10;404485.00;1.35;697.52;108910.00;0.36;188.95;;;;;28.60;1.00;;;;;;2571557;55;962;-84
2021/06/20 00:12:37;371602.00;1.24;640.99;15443.00;0.05;27.38;;;;;29.00;1.00;;;;;;2569320;56;1134;-85
2021/06/20 00:15:10;41835.00;0.14;73.06;0.00;0.00;0.62;;;;;29.00;1.00;;;;;;2569785;55;1343;-85
2021/06/20 00:17:37;295730.00;0.99;510.58;40459.00;0.13;70.68;;;;;29.30;1.00;;;;;;2572845;55;1145;-83
2021/06/20 00:20:05;94765.00;0.32;164.53;21929.00;0.07;38.61;;;;;29.30;1.00;;;;;;2570347;56;1110;-83
2021/06/20 00:22:32;136749.00;0.46;236.97;0.00;0.00;0.62;;;;;29.20;1.00;;;;;;2570645;56;1926;-82
2021/06/20 00:25:00;145516.00;0.49;252.08;79614.00;0.27;138.37;;;;;28.90;1.00;;;;;;2573541;55;1545;-83
2021/06/20 00:27:27;0.00;0.00;0.62;0.00;0.00;0.62;;;;;28.60;1.00;;;;;;2572186;56;1141;-82
2021/06/20 00:29:54;88972.00;0.30;154.53;0.00;0.00;0.62;;;;;28.50;1.00;;;;;;2574032;55;1109;-81
2021/06/20 00:32:22;0.00;0.00;0.62;0.00;0.00;0.62;;;;;28.10;1.00;;;;;;2576579;55;1187;-83
2021/06/20 00:34:49;146368.00;0.49;253.55;26010.00;0.09;45.68;;;;;28.20;1.00;;;;;;2574177;56;1175;-83
2021/06/20 00:37:16;78527.00;0.26;136.49;0.00;0.00;0.62;;;;;28.30;1.00;;;;;;2574477;56;1332;-84
2021/06/20 00:39:43;0.00;0.00;0.62;0.00;0.00;0.62;;;;;28.30;1.00;;;;;;2571153;56;1128;-83
2021/06/20 00:42:10;260430.00;0.87;449.89;0.00;0.00;0.62;;;;;28.30;1.00;;;;;;2569426;56;1975;-84
2021/06/20 00:44:44;47718.00;0.16;83.24;0.00;0.00;0.62;;;;;28.30;1.00;;;;;;2571723;55;899;-82
2021/06/20 00:47:11;21539.00;0.07;37.94;0.00;0.00;0.62;;;;;28.10;1.00;;;;;;2569320;56;1493;-83
2021/06/20 00:49:39;0.00;0.00;0.62;0.00;0.00;0.62;;;;;28.10;1.00;;;;;;2569981;55;1104;-84
2021/06/20 00:52:07;298818.00;1.00;515.89;27699.00;0.09;48.60;;;;;28.20;1.00;;;;;;2569666;56;1148;-84
2021/06/20 00:54:34;102586.00;0.34;178.04;0.00;0.00;0.62;;;;;28.10;1.00;;;;;;2569513;56;1112;-84
2021/06/20 00:57:02;134808.00;0.45;233.62;0.00;0.00;0.62;;;;;28.20;1.00;;;;;;2570660;56;1331;-82
2021/06/20 00:59:30;0.00;0.00;0.62;0.00;0.00;0.62;;;;;28.10;1.00;;;;;;2569066;56;1148;-82
2021/06/20 01:01:57;116021.00;0.39;201.22;0.00;0.00;0.62;;;;;28.00;1.00;;;;;;2570703;56;1963;-83
2021/06/20 01:04:24;161453.00;0.54;279.54;0.00;0.00;0.62;;;;;27.90;1.00;;;;;;2572602;56;1236;-82
2021/06/20 01:06:52;54295.00;0.18;94.61;0.00;0.00;0.62;;;;;27.90;1.00;;;;;;2572484;56;1360;-82
2021/06/20 01:09:19;357383.00;1.19;616.55;53896.00;0.18;93.92;;;;;27.80;1.00;;;;;;2571713;56;1136;-83
2021/06/20 01:11:46;230543.00;0.77;398.48;46067.00;0.15;80.38;;;;;27.60;1.00;;;;;;2571397;56;1065;-83
2021/06/20 01:14:13;125182.00;0.42;217.02;12929.00;0.04;23.02;;;;;27.60;1.00;;;;;;2573200;55;1200;-83
2021/06/20 01:16:41;71044.00;0.24;123.56;0.00;0.00;0.62;;;;;27.40;1.00;;;;;;2571329;56;1342;-83
2021/06/20 01:19:07;0.00;0.00;0.62;0.00;0.00;0.62;;;;;27.40;1.00;;;;;;2571286;55;1262;-83
2021/06/20 01:21:34;151738.00;0.51;262.80;0.00;0.00;0.62;;;;;27.30;1.00;;;;;;2570103;56;1993;-81
2021/06/20 01:24:03;129862.00;0.43;225.09;43197.00;0.14;75.42;;;;;27.20;1.00;;;;;;2576617;55;1137;-83
2021/06/20 01:26:32;353051.00;1.18;609.11;79754.00;0.27;138.61;;;;;27.20;1.00;;;;;;2578267;55;1324;-82
2021/06/20 01:29:04;324834.00;1.08;560.61;0.00;0.00;0.62;;;;;27.30;1.00;;;;;;2571527;55;1194;-82
2021/06/20 01:31:33;36828.00;0.12;64.40;0.00;0.00;0.62;;;;;27.30;1.00;;;;;;2571203;55;1157;-82
2021/06/20 01:34:00;251216.00;0.84;434.04;43007.00;0.14;75.09;;;;;27.40;1.00;;;;;;2572162;55;1147;-82
2021/06/20 01:36:27;90573.00;0.30;157.30;0.00;0.00;0.62;;;;;27.60;1.00;;;;;;2570258;56;1273;-82
2021/06/20 01:38:54;0.00;0.00;0.62;0.00;0.00;0.62;;;;;27.50;1.00;;;;;;2570269;56;1169;-82
2021/06/20 01:41:22;54494.00;0.18;94.96;0.00;0.00;0.62;;;;;27.60;1.00;;;;;;2571406;56;1959;-82
2021/06/20 01:43:49;0.00;0.00;0.62;0.00;0.00;0.62;;;;;27.70;1.00;;;;;;2571442;56;1089;-82
2021/06/20 01:46:16;43259.00;0.14;75.53;0.00;0.00;0.62;;;;;27.80;1.00;;;;;;2569177;55;1322;-82
2021/06/20 01:48:43;212035.00;0.71;366.64;77357.00;0.26;134.47;;;;;27.90;1.00;;;;;;2568906;56;1124;-82
2021/06/20 01:51:10;387997.00;1.29;669.17;80291.00;0.27;139.54;;;;;28.00;1.00;;;;;;2568956;56;1085;-83
2021/06/20 01:53:37;329644.00;1.10;568.87;41218.00;0.14;72.00;;;;;28.20;1.00;;;;;;2569159;56;1133;-83
2021/06/20 01:56:05;330684.00;1.10;570.66;62833.00;0.21;109.37;;;;;28.20;1.00;;;;;;2569343;55;1259;-83
2021/06/20 01:58:33;37652.00;0.13;65.83;0.00;0.00;0.62;;;;;28.20;1.00;;;;;;2569131;55;1066;-83
2021/06/20 02:01:01;37153.00;0.12;64.96;0.00;0.00;0.62;;;;;28.20;1.00;;;;;;2568604;55;1034;-83
2021/06/20 02:03:28;12332.00;0.04;21.99;0.00;0.00;0.62;;;;;28.10;1.00;;;;;;2568673;56;1993;-83
2021/06/20 02:05:59;141219.00;0.47;244.67;11995.00;0.04;21.41;;;;;28.30;1.00;;;;;;2568773;56;1352;-83
2021/06/20 02:08:26;933642.00;3.11;1615.28;161721.00;0.54;280.00;;;;;28.20;1.00;;;;;;2569627;56;1187;-83
2021/06/20 02:10:54;261285.00;0.87;451.36;47568.00;0.16;82.98;;;;;28.30;1.00;;;;;;2568486;56;1105;-82
2021/06/20 02:13:24;326583.00;1.09;563.61;0.00;0.00;0.62;;;;;28.20;1.00;;;;;;2569043;56;1125;-84
2021/06/20 02:15:53;0.00;0.00;0.62;0.00;0.00;0.62;;;;;28.00;1.00;;;;;;2569131;56;1357;-84
2021/06/20 02:18:20;336943.00;1.12;581.42;65833.00;0.22;114.56;;;;;28.00;1.00;;;;;;2569238;56;1217;-82
2021/06/20 02:20:48;203324.00;0.68;351.65;0.00;0.00;0.62;;;;;28.00;1.00;;;;;;2568706;55;1199;-81
2021/06/20 02:23:15;300699.00;1.00;519.12;21745.00;0.07;38.29;;;;;27.90;1.00;;;;;;2569086;56;1980;-82
2021/06/20 02:25:42;534971.00;1.78;922.06;213772.00;0.71;369.63;;;;;27.90;1.00;;;;;;2568770;56;1352;-82
2021/06/20 02:28:09;21697.00;0.07;38.21;0.00;0.00;0.62;;;;;27.60;1.00;;;;;;2568836;56;1106;-82
2021/06/20 02:30:36;0.00;0.00;0.62;0.00;0.00;0.62;;;;;27.40;1.00;;;;;;2568494;56;1111;-83
2021/06/20 02:33:04;449565.00;1.50;775.03;11067.00;0.04;19.80;;;;;27.40;1.00;;;;;;2568815;56;1173;-82
2021/06/20 02:35:31;521421.00;1.74;898.71;46009.00;0.15;80.28;;;;;27.40;1.00;;;;;;2571273;55;1236;-82
2021/06/20 02:37:58;375161.00;1.25;647.11;27512.00;0.09;48.28;;;;;27.60;1.00;;;;;;2571172;55;1094;-83
2021/06/20 02:40:25;293932.00;0.98;507.49;3232.00;0.01;6.22;;;;;27.50;1.00;;;;;;2570949;55;1764;-82
2021/06/20 02:42:52;326799.00;1.09;563.98;61245.00;0.20;106.63;;;;;27.40;1.00;;;;;;2568682;56;1955;-83
2021/06/20 02:45:21;501984.00;1.67;865.24;141655.00;0.47;245.42;;;;;27.30;1.00;;;;;;2567945;56;1274;-83
2021/06/20 02:47:49;396842.00;1.32;684.38;0.00;0.00;0.62;;;;;27.30;1.00;;;;;;2568760;56;1117;-82
2021/06/20 02:50:18;350214.00;1.17;604.23;117051.00;0.39;203.00;;;;;27.30;1.00;;;;;;2568996;55;1220;-83
2021/06/20 02:52:46;178130.00;0.59;308.27;0.00;0.00;0.62;;;;;27.50;1.00;;;;;;2569373;56;1143;-82
2021/06/20 02:55:14;175330.00;0.58;303.45;7547.00;0.03;13.70;;;;;27.60;1.00;;;;;;2568488;56;1315;-83
2021/06/20 02:57:42;274933.00;0.92;474.83;62286.00;0.21;108.43;;;;;27.50;1.00;;;;;;2568532;56;1157;-83
2021/06/20 03:00:10;540656.00;1.80;931.85;124233.00;0.41;215.38;;;;;27.60;1.00;;;;;;2571940;55;1669;-82
2021/06/20 03:02:37;344149.00;1.15;593.80;61117.00;0.20;106.41;;;;;27.70;1.00;;;;;;2571891;56;1975;-83
2021/06/20 03:05:05;360462.00;1.20;621.84;3519.00;0.01;6.72;;;;;27.80;1.00;;;;;;2568583;56;1355;-84
2021/06/20 03:07:33;380326.00;1.27;655.99;35801.00;0.12;62.62;;;;;27.70;1.00;;;;;;2568175;56;1103;-82
2021/06/20 03:10:00;669359.00;2.23;1154.14;104903.00;0.35;182.03;;;;;27.70;1.00;;;;;;2570891;55;1142;-83
2021/06/20 03:12:27;381868.00;1.27;658.64;34067.00;0.11;59.62;;;;;27.70;1.00;;;;;;2569014;55;1120;-83
2021/06/20 03:14:55;189098.00;0.63;327.16;56696.00;0.19;98.76;;;;;27.80;1.00;;;;;;2569499;56;2082;-84
2021/06/20 03:17:22;543458.00;1.81;936.68;44711.00;0.15;78.04;;;;;27.80;1.00;;;;;;2570268;56;1110;-83
2021/06/20 03:19:50;417529.00;1.39;719.94;68420.00;0.23;119.03;;;;;28.00;1.00;;;;;;2569007;56;1142;-83
2021/06/20 03:22:17;754757.00;2.52;1302.33;283778.00;0.95;490.03;;;;;28.10;1.00;;;;;;2568744;56;1902;-82
2021/06/20 03:24:48;174336.00;0.58;301.74;0.00;0.00;0.62;;;;;28.00;1.00;;;;;;2568612;56;1102;-83
2021/06/20 03:27:16;252875.00;0.84;436.90;47458.00;0.16;82.79;;;;;27.90;1.00;;;;;;2568911;56;1335;-82
2021/06/20 03:29:45;259009.00;0.86;447.44;0.00;0.00;0.62;;;;;27.70;1.00;;;;;;2569010;56;1062;-81
2021/06/20 03:32:12;192179.00;0.64;332.46;6981.00;0.02;12.72;;;;;27.70;1.00;;;;;;2569842;56;1117;-83
2021/06/20 03:34:39;196073.00;0.65;339.16;0.00;0.00;0.62;;;;;27.80;1.00;;;;;;2572109;55;1152;-83
2021/06/20 03:37:07;651956.00;2.17;1124.02;111762.00;0.37;193.87;;;;;27.80;1.00;;;;;;2570356;56;1317;-83
2021/06/20 03:39:35;162925.00;0.54;282.08;0.00;0.00;0.62;;;;;27.90;1.00;;;;;;2569745;56;1139;-84
2021/06/20 03:42:03;166791.00;0.56;288.74;0.00;0.00;0.62;;;;;27.80;1.00;;;;;;2570356;56;1923;-83
2021/06/20 03:44:31;114544.00;0.38;198.67;3573.00;0.01;6.81;;;;;27.70;1.00;;;;;;2572166;55;1113;-83
2021/06/20 03:46:58;261035.00;0.87;450.93;14073.00;0.05;25.00;;;;;27.70;1.00;;;;;;2572041;55;1313;-82
2021/06/20 03:49:25;74996.00;0.25;130.39;0.00;0.00;0.62;;;;;27.70;1.00;;;;;;2572080;55;2030;-82
2021/06/20 03:51:52;0.00;0.00;0.62;0.00;0.00;0.62;;;;;27.40;1.00;;;;;;2569547;56;1204;-82
2021/06/20 03:54:20;125857.00;0.42;218.18;0.00;0.00;0.62;;;;;27.40;1.00;;;;;;2569596;56;939;-82
2021/06/20 03:56:47;586645.00;1.96;1011.17;97174.00;0.32;168.69;;;;;27.50;1.00;;;;;;2575563;55;1619;-82
2021/06/20 03:59:16;711023.00;2.37;1226.36;174322.00;0.58;301.71;;;;;27.50;1.00;;;;;;2576520;55;1105;-83
2021/06/20 04:01:43;287755.00;0.96;496.87;54044.00;0.18;94.18;;;;;27.50;1.00;;;;;;2576464;55;1106;-83
2021/06/20 04:04:09;249489.00;0.83;431.07;38244.00;0.13;66.85;;;;;27.80;1.00;;;;;;2573037;55;1910;-84
2021/06/20 04:06:36;358339.00;1.19;618.19;62761.00;0.21;109.25;;;;;27.90;1.00;;;;;;2574518;55;1609;-83
2021/06/20 04:09:04;418187.00;1.39;721.07;0.00;0.00;0.62;;;;;27.70;1.00;;;;;;2578689;55;1289;-84
2021/06/20 04:11:31;854707.00;2.85;1476.71;98980.00;0.33;171.81;;;;;27.30;1.00;;;;;;2576471;55;1138;-84
2021/06/20 04:13:58;325925.00;1.09;562.48;0.00;0.00;0.62;;;;;27.10;1.00;;;;;;2576345;55;1090;-83
2021/06/20 04:16:26;10179.00;0.03;18.26;0.00;0.00;0.62;;;;;27.30;1.00;;;;;;2571168;56;1284;-83
2021/06/20 04:18:53;24970.00;0.08;43.88;0.00;0.00;0.62;;;;;27.30;1.00;;;;;;2570951;55;1064;-82
2021/06/20 04:21:20;260079.00;0.87;449.28;29390.00;0.10;51.53;;;;;27.30;1.00;;;;;;2575695;55;1128;-83
2021/06/20 04:23:48;58713.00;0.20;102.25;0.00;0.00;0.62;;;;;27.40;1.00;;;;;;2578179;55;1957;-82
2021/06/20 04:26:15;0.00;0.00;0.62;0.00;0.00;0.62;;;;;27.50;1.00;;;;;;2569735;56;1343;-83
2021/06/20 04:28:43;663419.00;2.21;1143.86;28757.00;0.10;50.43;;;;;27.30;1.00;;;;;;2571930;55;1105;-83
2021/06/20 04:31:10;205449.00;0.68;355.30;0.00;0.00;0.62;;;;;27.40;1.00;;;;;;2574520;55;1289;-84
2021/06/20 04:33:39;232903.00;0.78;402.54;0.00;0.00;0.62;;;;;27.60;1.00;;;;;;2574329;55;1090;-84
2021/06/20 04:36:06;454555.00;1.52;783.62;21496.00;0.07;37.86;;;;;27.80;1.00;;;;;;2570927;56;1268;-85
2021/06/20 04:38:33;447571.00;1.49;771.60;68182.00;0.23;118.62;;;;;28.10;1.00;;;;;;2571408;56;1118;-84
2021/06/20 04:41:03;412207.00;1.37;710.79;69629.00;0.23;121.12;;;;;28.30;1.00;;;;;;2571380;55;1109;-85
2021/06/20 04:43:57;449581.00;1.50;775.06;162228.00;0.54;280.88;;;;;28.30;1.00;;;;;;2571498;55;1908;-85
2021/06/20 04:46:27;453463.00;1.51;781.74;159697.00;0.53;276.52;;;;;28.40;1.00;;;;;;2573395;55;1366;-85
2021/06/20 04:48:57;315863.00;1.05;545.19;10217.00;0.03;18.33;;;;;28.40;1.00;;;;;;2573185;55;1262;-85
2021/06/20 04:51:25;279881.00;0.93;483.33;0.00;0.00;0.62;;;;;28.40;1.00;;;;;;2574479;55;1173;-84
2021/06/20 04:53:52;193539.00;0.65;334.80;0.00;0.00;0.62;;;;;28.40;1.00;;;;;;2575107;55;1753;-85
2021/06/20 04:56:19;346064.00;1.15;597.10;60691.00;0.20;105.67;;;;;28.20;1.00;;;;;;2570747;56;1354;-85
2021/06/20 04:58:46;111887.00;0.37;194.09;20075.00;0.07;35.40;;;;;28.40;1.00;;;;;;2571472;55;1121;-85
2021/06/20 05:01:13;164874.00;0.55;285.44;5465.00;0.02;10.09;;;;;28.60;1.00;;;;;;2570960;55;1175;-85
2021/06/20 05:03:40;428732.00;1.43;739.21;0.00;0.00;0.62;;;;;28.50;1.00;;;;;;2569541;56;1920;-85
2021/06/20 05:06:08;392194.00;1.31;676.39;7839.00;0.03;14.21;;;;;28.60;1.00;;;;;;2569358;56;1340;-85
2021/06/20 05:08:35;202150.00;0.67;349.62;0.00;0.00;0.62;;;;;28.40;1.00;;;;;;2571406;55;957;-86
2021/06/20 05:11:03;268728.00;0.90;464.16;69050.00;0.23;120.12;;;;;28.30;1.00;;;;;;2568992;56;1137;-86
2021/06/20 05:13:30;322688.00;1.08;556.92;63683.00;0.21;110.84;;;;;28.50;1.00;;;;;;2569144;56;1082;-86
2021/06/20 05:15:57;339862.00;1.13;586.44;121487.00;0.40;210.65;;;;;28.80;1.00;;;;;;2569070;55;1342;-86
2021/06/20 05:18:24;162812.00;0.54;281.88;0.00;0.00;0.62;;;;;29.10;1.00;;;;;;2569249;55;1101;-86
2021/06/20 05:20:51;177196.00;0.59;306.66;31267.00;0.10;54.78;;;;;29.30;1.00;;;;;;2569038;56;1195;-86
2021/06/20 05:23:21;145980.00;0.49;252.88;0.00;0.00;0.62;;;;;29.50;1.00;;;;;;2571432;55;1979;-85
2021/06/20 05:25:48;437606.00;1.46;754.47;6587.00;0.02;12.04;;;;;29.60;1.00;;;;;;2574319;55;1322;-85
2021/06/20 05:28:15;34299.00;0.11;60.02;0.00;0.00;0.62;;;;;29.60;1.00;;;;;;2572491;55;1128;-86
2021/06/20 05:30:45;485996.00;1.62;837.72;36610.00;0.12;64.02;;;;;29.80;1.00;;;;;;2570435;56;1130;-85
2021/06/20 05:33:13;8849.00;0.03;15.95;0.00;0.00;0.62;;;;;29.70;1.00;;;;;;2572119;55;1576;-85
2021/06/20 05:35:40;342654.00;1.14;591.24;46048.00;0.15;80.35;;;;;29.90;1.00;;;;;;2571792;55;1411;-85
2021/06/20 05:38:07;96848.00;0.32;168.13;0.00;0.00;0.62;;;;;29.80;1.00;;;;;;2571740;55;1643;-85
2021/06/20 05:40:36;427256.00;1.42;736.67;79572.00;0.27;138.30;;;;;30.00;1.00;;;;;;2569319;56;1057;-85
2021/06/20 05:43:03;169750.00;0.57;293.84;66023.00;0.22;114.89;;;;;30.00;1.00;;;;;;2569732;55;1971;-85
2021/06/20 05:45:30;200771.00;0.67;347.25;0.00;0.00;0.62;;;;;30.20;1.00;;;;;;2572243;55;1342;-85
2021/06/20 05:47:57;130525.00;0.44;226.23;0.00;0.00;0.62;;;;;30.30;1.00;;;;;;2569818;56;1058;-85
2021/06/20 05:50:24;293179.00;0.98;506.19;51174.00;0.17;89.22;;;;;30.70;1.00;;;;;;2570113;56;1042;-85
2021/06/20 05:52:52;56211.00;0.19;97.93;0.00;0.00;0.62;;;;;31.30;1.00;;;;;;2571938;55;1644;-85
2021/06/20 05:55:19;0.00;0.00;0.62;0.00;0.00;0.62;;;;;31.50;1.00;;;;;;2572117;55;1252;-85
2021/06/20 05:57:47;89937.00;0.30;156.20;24975.00;0.08;43.88;;;;;31.70;1.00;;;;;;2569841;56;1137;-86
2021/06/20 06:00:15;103736.00;0.35;180.02;0.00;0.00;0.62;;;;;32.10;1.00;;;;;;2569482;56;1117;-85
2021/06/20 06:02:42;643015.00;2.14;1108.55;117385.00;0.39;203.57;;;;;32.20;1.00;;;;;;2569710;56;1976;-85
2021/06/20 06:05:10;291106.00;0.97;502.63;64577.00;0.22;112.39;;;;;32.10;1.00;;;;;;2570340;56;1312;-85
2021/06/20 06:07:37;442577.00;1.48;763.02;56442.00;0.19;98.33;;;;;32.60;1.00;;;;;;2572655;55;1141;-85
2021/06/20 06:10:07;101650.00;0.34;176.42;0.00;0.00;0.62;;;;;32.40;1.00;;;;;;2570237;56;1192;-86
2021/06/20 06:20:00;121807.00;0.41;211.20;0.00;0.00;0.62;;;;;32.30;1.00;;;;;;2571723;55;560;-87
2021/06/20 06:27:23;244160.00;0.81;421.91;99107.00;0.33;172.03;;;;;33.20;1.00;;;;;;2570906;55;681;-83
2021/06/20 06:32:18;189207.00;0.63;327.34;0.00;0.00;0.62;;;;;33.10;1.00;;;;;;2581953;55;1240;-85
2021/06/20 06:34:45;353812.00;1.18;610.41;37653.00;0.13;65.83;;;;;33.20;1.00;;;;;;2584135;55;906;-82
2021/06/20 06:39:42;86231.00;0.29;149.80;0.00;0.00;0.62;;;;;32.80;1.00;;;;;;2571460;55;830;-84
2021/06/20 06:42:09;403985.00;1.35;696.66;42611.00;0.14;74.41;;;;;33.00;1.00;;;;;;2560457;55;1427;-84
2021/06/20 06:47:05;0.00;0.00;0.62;0.00;0.00;0.62;;;;;32.00;1.00;;;;;;2572305;56;1017;-85
2021/06/20 06:49:32;228127.00;0.76;394.33;73963.00;0.25;128.61;;;;;31.70;1.00;;;;;;2564476;55;928;-84
2021/06/20 06:51:59;231349.00;0.77;399.87;67699.00;0.23;117.78;;;;;31.40;1.00;;;;;;2560781;55;1372;-84
2021/06/20 06:54:26;182671.00;0.61;316.09;12689.00;0.04;22.61;;;;;31.30;1.00;;;;;;2558009;56;1010;-85
2021/06/20 07:01:50;428794.00;1.43;739.31;113595.00;0.38;197.03;;;;;31.00;1.00;;;;;;2569567;55;1262;-84
2021/06/20 07:06:45;343277.00;1.14;592.31;55681.00;0.19;97.01;;;;;30.70;1.00;;;;;;2571465;56;527;-84
2021/06/20 07:14:07;123834.00;0.41;214.70;9259.00;0.03;16.67;;;;;30.20;1.00;;;;;;2577298;56;401;-85
2021/06/20 07:19:04;109981.00;0.37;190.80;14414.00;0.05;25.60;;;;;30.10;1.00;;;;;;2577354;56;401;-86
2021/06/20 07:24:00;124383.00;0.41;215.64;53757.00;0.18;93.68;;;;;30.40;1.00;;;;;;2577235;56;1893;-84
2021/06/20 07:26:29;420202.00;1.40;724.54;184802.00;0.62;319.76;;;;;30.10;1.00;;;;;;2565775;55;970;-83
2021/06/20 07:33:55;7290.00;0.02;13.25;0.00;0.00;0.62;;;;;29.90;1.00;;;;;;2577479;56;398;-85
2021/06/20 07:41:19;258512.00;0.86;446.59;81799.00;0.27;142.14;;;;;30.10;1.00;;;;;;2577382;56;1263;-84
2021/06/20 07:53:40;305442.00;1.02;527.27;74492.00;0.25;129.52;;;;;30.30;1.00;;;;;;2576569;55;595;-86
2021/06/20 08:03:37;277538.00;0.93;479.30;30780.00;0.10;53.93;;;;;30.60;1.00;;;;;;2576973;55;1926;-83
2021/06/20 08:06:04;156832.00;0.52;271.58;0.00;0.00;0.62;;;;;30.70;1.00;;;;;;2579221;55;974;-82
2021/06/20 08:15:55;0.00;0.00;0.62;0.00;0.00;0.62;;;;;30.30;1.00;;;;;;2576966;55;669;-85
2021/06/20 08:18:22;115232.00;0.38;199.86;0.00;0.00;0.62;;;;;30.40;1.00;;;;;;2579091;55;958;-83
2021/06/20 08:23:18;7125.00;0.02;12.97;0.00;0.00;0.62;;;;;30.20;1.00;;;;;;2576699;55;1919;-83
2021/06/20 08:28:13;48132.00;0.16;83.96;0.00;0.00;0.62;;;;;30.60;1.00;;;;;;2576926;55;555;-82
2021/06/20 08:30:40;390772.00;1.30;673.94;0.00;0.00;0.62;;;;;30.90;1.00;;;;;;2573129;55;1317;-83
2021/06/20 08:33:07;0.00;0.00;0.62;0.00;0.00;0.62;;;;;31.00;1.00;;;;;;2573264;55;970;-84
2021/06/20 08:35:35;154235.00;0.51;267.11;0.00;0.00;0.62;;;;;31.30;1.00;;;;;;2564710;55;915;-84
2021/06/20 08:38:02;0.00;0.00;0.62;0.00;0.00;0.62;;;;;31.50;1.00;;;;;;2573167;55;950;-86
2021/06/20 08:43:00;27583.00;0.09;48.40;0.00;0.00;0.62;;;;;31.20;1.00;;;;;;2576664;55;660;-81
2021/06/20 08:45:27;0.00;0.00;0.62;0.00;0.00;0.62;;;;;31.60;1.00;;;;;;2578834;55;919;-83
2021/06/20 08:47:54;278229.00;0.93;480.49;23100.00;0.08;40.64;;;;;31.70;1.00;;;;;;2572807;55;946;-82
2021/06/20 08:55:17;132590.00;0.44;229.80;0.00;0.00;0.62;;;;;31.50;1.00;;;;;;2576832;55;590;-83
2021/06/20 09:27:28;25692.00;0.09;45.13;0.00;0.00;0.62;;;;;31.40;1.00;;;;;;2576825;55;533;-85
2021/06/20 09:34:51;125040.00;0.42;216.78;0.00;0.00;0.62;;;;;32.00;1.00;;;;;;2576823;55;587;-84
2021/06/20 09:37:21;0.00;0.00;0.62;0.00;0.00;0.62;;;;;32.10;1.00;;;;;;2579037;55;974;-86
2021/06/20 09:39:48;1929.00;0.01;3.96;0.00;0.00;0.62;;;;;32.20;1.00;;;;;;2578385;55;985;-85
2021/06/20 09:42:17;220707.00;0.74;381.56;88101.00;0.29;153.03;;;;;32.80;1.00;;;;;;2563091;55;1285;-84
2021/06/20 09:44:48;0.00;0.00;0.62;0.00;0.00;0.62;;;;;33.20;1.00;;;;;;2563146;55;1918;-83
2021/06/20 09:52:11;37406.00;0.12;65.40;0.00;0.00;0.62;;;;;33.00;1.00;;;;;;2576774;55;1217;-85
2021/06/20 09:54:43;330541.00;1.10;570.42;100231.00;0.33;173.97;;;;;33.50;1.00;;;;;;2568312;55;996;-85
2021/06/20 10:09:37;216862.00;0.72;374.94;67684.00;0.23;117.76;;;;;34.40;1.00;;;;;;2552616;55;3520;31
2021/06/20 10:41:41;130113.00;0.43;225.52;57234.00;0.19;99.69;;;;;34.60;1.00;;;;;;2576794;55;1293;-86
2021/06/20 13:15:22;1080428.00;3.60;1875.46;203081.00;0.68;351.23;;;;;32.40;1.00;;;;;;2543791;40;3452;31
2021/06/20 15:26:23;807536.00;2.69;1394.27;161804.00;0.54;280.15;;;;;32.40;1.00;;;;;;2576378;55;571;-89
2021/06/20 15:28:54;488265.00;1.63;841.62;142607.00;0.48;247.06;;;;;32.30;1.00;;;;;;2576351;55;1127;-86
2021/06/20 15:31:21;553628.00;1.85;954.21;53275.00;0.18;92.85;;;;;31.90;1.00;;;;;;2576471;55;1113;-87
2021/06/20 15:33:48;1080022.00;3.60;1874.73;263824.00;0.88;455.72;;;;;31.80;1.00;;;;;;2569597;55;1417;-86
2021/06/20 15:36:17;47529.00;0.16;82.91;0.00;0.00;0.62;;;;;31.50;1.00;;;;;;2576493;55;1076;-87
2021/06/20 15:38:47;232988.00;0.78;402.69;51041.00;0.17;88.99;;;;;31.40;1.00;;;;;;2576417;55;1113;-86
2021/06/20 15:41:14;1074195.00;3.58;1864.34;127791.00;0.43;221.52;;;;;31.80;1.00;;;;;;2576476;55;1099;-86
2021/06/20 15:43:45;117348832.00;391.16;65458248.00;117081224.00;390.27;65011052.00;;;;;31.70;1.00;;;;;;2578553;55;1905;-87
2021/06/20 15:46:12;1177303.00;3.92;2049.24;169332.00;0.56;293.12;;;;;31.30;1.00;;;;;;2576488;55;1084;-87
2021/06/20 15:48:39;911954.00;3.04;1577.12;252563.00;0.84;436.36;;;;;31.10;1.00;;;;;;2576462;55;1166;-87
2021/06/20 15:51:08;621246.00;2.07;1070.92;164128.00;0.55;284.15;;;;;30.90;1.00;;;;;;2578568;55;1077;-87
2021/06/20 15:53:35;616524.00;2.06;1062.76;72599.00;0.24;126.25;;;;;30.70;1.00;;;;;;2578742;55;968;-87
2021/06/20 15:56:04;1087869.00;3.63;1888.74;380395.00;1.27;656.10;;;;;30.90;1.00;;;;;;2578712;55;1053;-86
2021/06/20 15:58:31;732573.00;2.44;1263.77;102607.00;0.34;178.07;;;;;30.90;1.00;;;;;;2567774;56;970;-86
2021/06/20 16:01:00;752400.00;2.51;1298.23;196464.00;0.65;339.84;;;;;30.70;1.00;;;;;;2554977;56;952;-86
2021/06/20 16:03:27;569015.00;1.90;980.75;70542.00;0.24;122.70;;;;;30.90;1.00;;;;;;2565666;56;1122;-87
2021/06/20 16:05:54;449226.00;1.50;774.45;77528.00;0.26;134.77;;;;;30.90;1.00;;;;;;2567766;56;1949;-85
2021/06/20 16:08:21;853623.00;2.85;1474.81;183827.00;0.61;318.08;;;;;30.70;1.00;;;;;;2565628;56;1097;-87
2021/06/20 16:10:49;616021.00;2.05;1061.89;101792.00;0.34;176.66;;;;;30.50;1.00;;;;;;2565552;56;979;-86
2021/06/20 16:13:16;403707.00;1.35;696.18;137988.00;0.46;239.10;;;;;30.00;1.00;;;;;;2567863;56;1153;-83
2021/06/20 16:15:44;117988848.00;393.30;66536092.00;217901.00;0.73;376.73;;;;;29.90;1.00;;;;;;2566963;55;1313;-85
2021/06/20 16:18:12;400416.00;1.33;690.52;63694.00;0.21;110.86;;;;;29.80;1.00;;;;;;2576464;55;1063;-86
2021/06/20 16:20:40;559089.00;1.86;963.63;141397.00;0.47;244.98;;;;;30.10;1.00;;;;;;2576722;55;1122;-85
2021/06/20 16:23:07;1586021.00;5.29;2806.05;199480.00;0.66;345.03;;;;;30.30;1.00;;;;;;2576775;55;1053;-85
2021/06/20 16:25:34;581884.00;1.94;1002.95;86090.00;0.29;149.56;;;;;30.30;1.00;;;;;;2576551;55;1964;-85
2021/06/20 16:28:01;597964.00;1.99;1030.70;86749.00;0.29;150.69;;;;;30.20;1.00;;;;;;2578951;55;1024;-86
2021/06/20 16:30:29;606753.00;2.02;1045.88;126759.00;0.42;219.74;;;;;30.40;1.00;;;;;;2576678;55;1092;-85
2021/06/20 16:32:57;701978.00;2.34;1210.67;123951.00;0.41;214.90;;;;;30.60;1.00;;;;;;2578817;55;1011;-86
2021/06/20 16:35:26;693725.00;2.31;1196.36;71168.00;0.24;123.78;;;;;30.40;1.00;;;;;;2576696;55;1364;-85
2021/06/20 16:37:53;1400676.00;4.67;2457.58;188918.00;0.63;326.85;;;;;30.20;1.00;;;;;;2576724;55;1117;-85
2021/06/20 16:40:21;502456.00;1.67;866.05;66259.00;0.22;115.30;;;;;29.90;1.00;;;;;;2578882;55;990;-85
2021/06/20 16:42:48;644222.00;2.15;1110.64;161794.00;0.54;280.13;;;;;29.50;1.00;;;;;;2576692;55;1074;-84
2021/06/20 16:45:16;772263.00;2.57;1332.79;155279.00;0.52;268.90;;;;;29.30;1.00;;;;;;2576568;55;1894;-83
2021/06/20 16:47:43;378667.00;1.26;653.13;56008.00;0.19;97.58;;;;;29.00;1.00;;;;;;2576679;55;1232;-84
2021/06/20 16:50:11;931615.00;3.11;1611.72;140465.00;0.47;243.37;;;;;29.10;1.00;;;;;;2576629;55;1061;-85
2021/06/20 16:52:39;523717.00;1.75;902.67;74536.00;0.25;129.60;;;;;28.90;1.00;;;;;;2576509;55;1125;-87
2021/06/20 16:55:07;704570.00;2.35;1215.16;116850.00;0.39;202.65;;;;;29.20;1.00;;;;;;2578704;55;1552;-86
2021/06/20 16:57:35;311240.00;1.04;537.24;58349.00;0.19;101.62;;;;;29.70;1.00;;;;;;2576648;55;1074;-86
2021/06/20 17:00:02;304197.00;1.01;525.13;66995.00;0.22;116.57;;;;;29.80;1.00;;;;;;2578865;55;902;-85
2021/06/20 17:02:29;917309.00;3.06;1586.54;99441.00;0.33;172.61;;;;;29.70;1.00;;;;;;2578843;55;1638;-86
2021/06/20 17:04:57;729447.00;2.43;1258.34;128195.00;0.43;222.22;;;;;29.50;1.00;;;;;;2578601;55;1967;-86
2021/06/20 17:07:24;734403.00;2.45;1266.95;76174.00;0.25;132.43;;;;;29.70;1.00;;;;;;2578766;55;1677;-85
2021/06/20 17:09:53;852241.00;2.84;1472.39;178622.00;0.60;309.12;;;;;30.00;1.00;;;;;;2576208;55;950;-86